createdAt,value
2022-08-18T00:01:16.829Z,4.20
2022-08-18T00:06:21.842Z,4.13
2022-08-18T00:11:25.100Z,4.82
2022-08-18T00:16:29.309Z,6.10
2022-08-18T00:21:32.258Z,7.32
2022-08-18T00:26:37.073Z,6.80
2022-08-18T00:31:41.654Z,6.93
2022-08-18T00:36:44.516Z,8.40
2022-08-18T00:41:47.423Z,6.30
2022-08-18T00:46:51.810Z,8.95
2022-08-18T00:51:55.493Z,8.68
2022-08-18T00:57:01.361Z,8.50
2022-08-18T01:02:10.384Z,9.35
2022-08-18T01:07:20.510Z,9.95
2022-08-18T01:12:45.837Z,12.85
2022-08-18T01:18:05.802Z,10.90
2022-08-18T01:23:14.188Z,12.85
2022-08-18T01:28:19.431Z,11.00
2022-08-18T01:33:22.294Z,13.02
2022-08-18T01:38:34.454Z,12.27
2022-08-18T01:43:38.109Z,12.00
2022-08-18T01:48:43.159Z,12.27
2022-08-18T01:53:48.651Z,13.13
2022-08-18T01:58:51.453Z,12.98
2022-08-18T02:04:23.465Z,13.48
2022-08-18T02:09:25.310Z,14.20
2022-08-18T02:14:28.235Z,11.40
2022-08-18T02:19:35.996Z,14.10
2022-08-18T02:24:40.915Z,14.70
2022-08-18T02:29:43.822Z,15.35
2022-08-18T02:34:46.676Z,14.85
2022-08-18T02:39:51.143Z,16.40
2022-08-18T02:44:54.365Z,20.27
2022-08-18T02:49:57.288Z,17.25
2022-08-18T02:55:02.274Z,14.55
2022-08-18T03:00:05.959Z,15.38
2022-08-18T03:05:10.844Z,15.35
2022-08-18T03:10:33.307Z,13.05
2022-08-18T03:15:36.821Z,14.27
2022-08-18T03:20:40.218Z,14.18
2022-08-18T03:25:47.613Z,15.63
2022-08-18T03:30:50.566Z,15.77
2022-08-18T03:35:53.504Z,12.43
2022-08-18T03:40:57.700Z,14.25
2022-08-18T03:46:02.383Z,12.65
2022-08-18T03:51:06.763Z,12.18
2022-08-18T03:56:16.081Z,11.75
2022-08-18T04:01:26.517Z,13.02
2022-08-18T04:06:33.382Z,12.45
2022-08-18T04:11:43.105Z,15.65
2022-08-18T04:16:49.003Z,17.20
2022-08-18T04:21:54.254Z,19.02
2022-08-18T04:26:59.672Z,19.38
2022-08-18T04:32:04.915Z,16.05
2022-08-18T04:37:09.616Z,18.77
2022-08-18T04:42:14.053Z,14.13
2022-08-18T04:47:17.303Z,16.08
2022-08-18T04:52:41.554Z,21.73
2022-08-18T04:57:46.289Z,17.00
2022-08-18T05:02:49.517Z,16.85
2022-08-18T05:07:52.604Z,17.25
2022-08-18T05:12:57.519Z,18.98
2022-08-18T05:18:00.374Z,15.80
2022-08-18T05:23:03.940Z,13.30
2022-08-18T05:28:09.864Z,12.23
2022-08-18T05:33:12.697Z,14.82
2022-08-18T05:38:26.881Z,13.65
2022-08-18T05:43:31.619Z,13.80
2022-08-18T05:48:39.832Z,15.68
2022-08-18T05:54:04.320Z,13.20
2022-08-18T05:59:09.574Z,14.88
2022-08-18T06:04:21.273Z,14.95
2022-08-18T06:09:29.695Z,16.13
2022-08-18T06:14:33.928Z,13.82
2022-08-18T06:19:49.864Z,17.98
2022-08-18T06:25:01.974Z,18.15
2022-08-18T06:30:12.644Z,17.05
2022-08-18T06:35:24.661Z,23.48
2022-08-18T06:40:28.030Z,28.98
2022-08-18T06:45:39.890Z,30.48
2022-08-18T06:50:51.350Z,37.78
2022-08-18T06:55:54.194Z,36.08
2022-08-18T07:01:02.446Z,43.33
2022-08-18T07:06:07.882Z,54.13
2022-08-18T07:11:14.794Z,49.42
2022-08-18T07:16:46.940Z,45.93
2022-08-18T07:21:48.435Z,47.60
2022-08-18T07:27:02.534Z,42.47
2022-08-18T07:32:20.924Z,40.25
2022-08-18T07:37:30.506Z,35.38
2022-08-18T07:42:54.252Z,38.25
2022-08-18T07:48:15.749Z,42.63
2022-08-18T07:53:38.309Z,45.88
2022-08-18T07:58:48.991Z,54.53
2022-08-18T08:04:01.750Z,62.83
2022-08-18T08:09:13.772Z,60.30
2022-08-18T08:14:31.352Z,69.53
2022-08-18T08:20:00.607Z,62.10
2022-08-18T08:25:28.304Z,47.25
2022-08-18T08:30:37.056Z,48.65
2022-08-18T08:35:52.855Z,45.45
2022-08-18T08:41:03.201Z,40.13
2022-08-18T08:46:11.515Z,36.58
2022-08-18T08:51:30.566Z,40.15
2022-08-18T08:56:40.142Z,36.78
2022-08-18T09:01:52.842Z,35.08
2022-08-18T09:07:10.582Z,35.40
2022-08-18T09:12:26.014Z,32.95
2022-08-18T09:17:54.268Z,33.03
2022-08-18T09:23:06.932Z,39.90
2022-08-18T09:28:13.052Z,33.47
2022-08-18T09:33:49.744Z,29.92
2022-08-18T09:39:20.550Z,31.77
2022-08-18T09:45:02.027Z,29.83
2022-08-18T09:50:38.584Z,27.67
2022-08-18T09:56:01.345Z,27.10
2022-08-18T10:01:39.901Z,26.42
2022-08-18T10:12:16.321Z,31.13
2022-08-18T10:17:36.783Z,29.23
2022-08-18T10:22:44.244Z,35.33
2022-08-18T10:32:58.014Z,25.70
2022-08-18T10:38:03.838Z,28.52
2022-08-18T10:43:45.198Z,30.60
2022-08-18T10:48:35.762Z,28.42
2022-08-18T10:53:49.746Z,26.02
2022-08-18T10:59:16.211Z,27.63
2022-08-18T11:04:33.512Z,24.73
2022-08-18T11:09:41.725Z,22.00
2022-08-18T11:15:22.841Z,22.38
2022-08-18T11:25:38.489Z,21.45
2022-08-18T11:30:46.635Z,20.10
2022-08-18T11:35:52.792Z,23.58
2022-08-18T11:46:40.835Z,19.20
2022-08-18T11:52:02.228Z,19.50
2022-08-18T11:57:32.366Z,17.60
2022-08-18T12:02:38.597Z,14.63
2022-08-18T12:07:49.623Z,13.98
2022-08-18T12:13:01.214Z,15.88
2022-08-18T12:18:06.342Z,13.88
2022-08-18T12:23:09.173Z,14.43
2022-08-18T12:28:12.022Z,16.30
2022-08-18T12:33:16.879Z,13.73
2022-08-18T12:38:28.249Z,13.52
2022-08-18T12:43:32.521Z,15.40
2022-08-18T12:48:39.498Z,18.67
2022-08-18T12:53:57.993Z,15.85
2022-08-18T12:59:06.729Z,15.40
2022-08-18T13:04:13.872Z,15.73
2022-08-18T13:09:35.238Z,13.18
2022-08-18T13:14:40.130Z,15.77
2022-08-18T13:19:48.206Z,14.77
2022-08-18T13:24:52.707Z,13.13
2022-08-18T13:29:56.170Z,11.57
2022-08-18T13:35:00.358Z,11.75
2022-08-18T13:40:07.215Z,10.97
2022-08-18T13:45:24.555Z,10.40
2022-08-18T13:50:30.135Z,14.20
2022-08-18T13:55:33.063Z,15.55
2022-08-18T14:00:36.324Z,13.05
2022-08-18T14:05:51.504Z,11.02
2022-08-18T14:10:59.197Z,10.13
2022-08-18T14:16:02.105Z,11.48
2022-08-18T14:21:24.801Z,12.20
2022-08-18T14:26:45.295Z,13.52
2022-08-18T14:31:48.903Z,12.23
2022-08-18T14:36:56.629Z,12.52
2022-08-18T14:41:59.777Z,17.20
2022-08-18T14:47:06.560Z,11.30
2022-08-18T14:52:13.957Z,11.00
2022-08-18T14:57:18.203Z,14.18
2022-08-18T15:02:28.835Z,15.43
2022-08-18T15:07:33.627Z,16.45
2022-08-18T15:12:37.491Z,12.95
2022-08-18T15:17:42.027Z,13.05
2022-08-18T15:23:05.112Z,11.90
2022-08-18T15:28:08.356Z,16.45
2022-08-18T15:33:25.300Z,13.18
2022-08-18T15:38:35.569Z,12.80
2022-08-18T15:43:45.941Z,13.35
2022-08-18T15:48:49.666Z,15.15
2022-08-18T15:53:56.389Z,14.23
2022-08-18T15:59:04.302Z,12.45
2022-08-18T16:09:18.408Z,10.63
2022-08-18T16:14:21.243Z,9.60
2022-08-18T16:19:25.795Z,12.20
2022-08-18T16:24:34.695Z,9.35
2022-08-18T16:29:37.999Z,9.02
2022-08-18T16:34:41.417Z,11.23
2022-08-18T16:39:45.702Z,10.32
2022-08-18T16:44:48.740Z,10.82
2022-08-18T16:49:52.388Z,10.38
2022-08-18T16:55:03.448Z,12.45
2022-08-18T17:00:25.314Z,10.65
2022-08-18T17:05:28.243Z,10.82
2022-08-18T17:10:37.889Z,16.73
2022-08-18T17:15:40.820Z,18.20
2022-08-18T17:20:43.844Z,15.23
2022-08-18T17:25:48.862Z,13.60
2022-08-18T17:30:53.674Z,14.43
2022-08-18T17:36:00.622Z,14.70
2022-08-18T17:41:06.173Z,14.33
2022-08-18T17:46:13.738Z,15.82
2022-08-18T17:51:37.324Z,13.95
2022-08-18T17:56:52.542Z,13.40
2022-08-18T18:02:16.582Z,17.33
2022-08-18T18:07:34.838Z,10.90
2022-08-18T18:12:40.136Z,11.15
2022-08-18T18:17:54.633Z,12.50
2022-08-18T18:23:17.754Z,12.20
2022-08-18T18:28:31.978Z,11.07
2022-08-18T18:33:36.301Z,12.15
2022-08-18T18:38:46.068Z,12.48
2022-08-18T18:43:52.646Z,11.77
2022-08-18T18:49:07.511Z,10.40
2022-08-18T18:54:23.299Z,13.68
2022-08-18T18:59:48.897Z,10.73
2022-08-18T19:04:57.767Z,12.68
2022-08-18T19:10:07.240Z,11.30
2022-08-18T19:15:15.135Z,10.48
2022-08-18T19:25:27.722Z,8.60
2022-08-18T19:30:35.430Z,8.30
2022-08-18T19:35:42.979Z,11.88
2022-08-18T19:40:51.212Z,10.98
2022-08-18T19:46:02.860Z,12.98
2022-08-18T19:51:19.855Z,12.07
2022-08-18T19:56:43.587Z,12.35
2022-08-18T20:01:59.145Z,11.52
2022-08-18T20:07:20.508Z,12.15
2022-08-18T20:12:45.196Z,9.82
2022-08-18T20:18:21.551Z,9.95
2022-08-18T20:23:34.172Z,13.55
2022-08-18T20:28:40.489Z,16.67
2022-08-18T20:34:03.939Z,12.73
2022-08-18T20:39:32.339Z,11.75
2022-08-18T20:50:16.045Z,11.18
2022-08-18T20:55:27.367Z,13.48
2022-08-18T21:00:35.851Z,19.17
2022-08-18T21:05:41.912Z,12.00
2022-08-18T21:10:50.834Z,10.27
2022-08-18T21:15:54.654Z,11.80
2022-08-18T21:21:00.718Z,9.77
2022-08-18T21:26:11.248Z,9.55
2022-08-18T21:31:41.705Z,8.70
2022-08-18T21:36:54.690Z,8.98
2022-08-18T21:41:59.453Z,7.95
2022-08-18T21:47:09.401Z,23.50
2022-08-18T21:52:24.047Z,9.63
2022-08-18T21:57:28.794Z,10.30
2022-08-18T22:02:32.236Z,8.05
2022-08-18T22:07:36.585Z,11.18
2022-08-18T22:13:01.865Z,9.65
2022-08-18T22:18:07.199Z,9.20
2022-08-18T22:23:45.768Z,8.68
2022-08-18T22:28:56.144Z,9.82
2022-08-18T22:34:04.612Z,9.43
2022-08-18T22:39:12.443Z,9.95
2022-08-18T22:44:15.270Z,9.27
2022-08-18T22:49:18.601Z,10.35
2022-08-18T22:54:25.360Z,10.68
2022-08-18T22:59:28.292Z,11.27
2022-08-18T23:04:31.386Z,10.60
2022-08-18T23:09:36.332Z,11.52
2022-08-18T23:14:39.316Z,10.05
2022-08-18T23:19:42.703Z,8.93
2022-08-18T23:24:48.605Z,9.48
2022-08-18T23:29:52.383Z,10.65
2022-08-18T23:34:55.748Z,10.50
2022-08-18T23:40:00.074Z,8.43
2022-08-18T23:45:04.700Z,9.23
2022-08-18T23:50:08.467Z,9.73
2022-08-18T23:55:15.595Z,10.45
